Time;durP1;ratioP1;P1;durP2;ratioP2;P2;SDS_P1;SDS_P2;PMS_P1;PMS_P2;Temp;Humidity;BMP_temperature;BMP_pressure;BME280_temperature;BME280_humidity;BME280_pressure;Samples;Min_cycle;Max_cycle;Signal;HPM_P1;HPM_P2
2022/03/11 00:00:38;;;;;;;11.10;7.35;;;;;;;3.66;59.48;101852.94;5089845;28;20110;-74
2022/03/11 00:03:03;;;;;;;11.43;7.18;;;;;;;3.63;59.60;101850.44;5089942;28;20451;-73
2022/03/11 00:05:29;;;;;;;11.95;7.13;;;;;;;3.63;59.60;101847.81;5089618;28;20547;-73
2022/03/11 00:07:55;;;;;;;12.63;7.53;;;;;;;3.62;59.62;101852.19;5089850;28;20123;-74
2022/03/11 00:10:21;;;;;;;10.07;7.05;;;;;;;3.60;60.03;101848.78;5090135;28;20186;-74
2022/03/11 00:12:47;;;;;;;12.00;6.95;;;;;;;3.57;59.89;101848.94;5071274;28;20170;-73
2022/03/11 00:15:13;;;;;;;16.35;7.93;;;;;;;3.58;59.89;101844.50;5075315;28;20032;-74
2022/03/11 00:17:38;;;;;;;13.90;7.40;;;;;;;3.52;60.00;101846.50;5074997;28;20032;-74
2022/03/11 00:20:05;;;;;;;12.38;8.23;;;;;;;3.49;60.83;101838.75;5075005;28;20024;-73
2022/03/11 00:22:31;;;;;;;9.95;7.10;;;;;;;3.48;60.83;101849.34;5093948;28;20434;-74
2022/03/11 00:24:56;;;;;;;18.25;8.20;;;;;;;3.44;60.89;101843.34;5093152;28;20028;-74
2022/03/11 00:27:22;;;;;;;15.00;8.55;;;;;;;3.40;60.64;101833.88;5093382;28;20047;-74
2022/03/11 00:29:47;;;;;;;12.23;8.38;;;;;;;3.35;60.65;101841.97;5093416;28;20044;-73
2022/03/11 00:32:13;;;;;;;18.40;8.45;;;;;;;3.33;61.05;101835.09;5093119;28;20123;-73
2022/03/11 00:34:39;;;;;;;12.23;7.60;;;;;;;3.32;60.69;101834.22;5093153;28;20202;-73
2022/03/11 00:37:04;;;;;;;13.20;8.65;;;;;;;3.42;60.40;101839.06;5093240;28;20093;-75
2022/03/11 00:39:29;;;;;;;13.05;8.10;;;;;;;3.47;60.32;101830.06;5092893;28;20044;-74
2022/03/11 00:41:55;;;;;;;20.23;8.23;;;;;;;3.47;60.10;101829.22;5093326;28;20329;-75
2022/03/11 00:44:21;;;;;;;12.65;7.35;;;;;;;3.52;58.97;101827.22;5093088;28;20402;-74
2022/03/11 00:46:46;;;;;;;12.63;8.27;;;;;;;3.63;59.25;101827.59;5093774;28;20035;-73
2022/03/11 00:49:12;;;;;;;11.60;7.35;;;;;;;3.57;59.38;101830.50;5093227;28;20119;-73
2022/03/11 00:51:38;;;;;;;12.50;7.70;;;;;;;3.56;59.75;101827.94;5074844;28;20146;-73
2022/03/11 00:54:04;;;;;;;17.95;8.80;;;;;;;3.55;59.60;101824.44;5092579;28;20032;-73
2022/03/11 00:56:30;;;;;;;14.30;8.00;;;;;;;3.47;59.57;101816.91;5092987;28;20169;-75
2022/03/11 00:58:56;;;;;;;17.50;8.23;;;;;;;3.46;59.46;101814.34;5092358;28;20047;-75
2022/03/11 01:01:22;;;;;;;14.40;8.27;;;;;;;3.42;59.71;101813.63;5074271;28;20024;-73
2022/03/11 01:03:48;;;;;;;15.73;7.97;;;;;;;3.53;59.16;101810.50;5074495;28;20024;-74
2022/03/11 01:06:13;;;;;;;12.20;7.95;;;;;;;3.59;59.23;101789.16;5092911;28;20357;-74
2022/03/11 01:08:39;;;;;;;14.45;8.43;;;;;;;3.61;58.79;101802.25;5092848;28;20040;-74
2022/03/11 01:11:05;;;;;;;15.38;9.02;;;;;;;3.59;58.56;101797.06;5074037;28;20242;-73
2022/03/11 01:13:30;;;;;;;20.25;8.40;;;;;;;3.60;59.09;101792.66;5092362;28;20129;-74
2022/03/11 01:15:56;;;;;;;15.80;8.43;;;;;;;3.67;58.49;101794.06;5092567;28;20024;-74
2022/03/11 01:18:21;;;;;;;22.48;8.98;;;;;;;3.72;58.24;101789.47;5092165;28;20096;-72
2022/03/11 01:20:47;;;;;;;16.42;8.82;;;;;;;3.69;58.68;101785.19;5092328;28;20099;-74
2022/03/11 01:23:12;;;;;;;13.20;8.43;;;;;;;3.65;58.63;101785.41;5073669;28;20040;-74
2022/03/11 01:25:38;;;;;;;14.05;9.00;;;;;;;3.62;59.04;101780.28;5090931;28;20440;-74
2022/03/11 01:28:03;;;;;;;16.35;8.38;;;;;;;3.51;59.73;101775.53;5073661;28;20493;-75
2022/03/11 01:30:28;;;;;;;18.40;8.70;;;;;;;3.53;59.52;101768.41;5092065;28;20028;-74
2022/03/11 01:32:54;;;;;;;16.95;9.35;;;;;;;3.54;59.42;101767.50;5092346;28;20325;-76
2022/03/11 01:35:19;;;;;;;14.68;9.05;;;;;;;3.49;59.48;101764.19;5056784;28;20159;-76
2022/03/11 01:37:45;;;;;;;13.55;8.82;;;;;;;3.52;59.78;101757.03;5073562;28;20036;-75
2022/03/11 01:40:11;;;;;;;13.75;8.82;;;;;;;3.43;60.06;101752.16;5092248;28;20031;-75
2022/03/11 01:42:36;;;;;;;17.98;9.50;;;;;;;3.35;60.13;101757.78;5091961;28;20040;-74
2022/03/11 01:45:04;;;;;;;18.83;8.82;;;;;;;3.33;60.14;101751.75;5091578;28;20036;-74
2022/03/11 01:47:30;;;;;;;14.45;9.02;;;;;;;3.47;59.53;101751.13;5057305;28;20059;-74
2022/03/11 01:49:55;;;;;;;15.30;9.35;;;;;;;3.41;60.00;101750.56;5091882;28;20040;-75
2022/03/11 01:52:21;;;;;;;23.48;9.15;;;;;;;3.35;59.86;101746.44;5091936;28;20028;-75
2022/03/11 01:54:49;;;;;;;14.73;9.07;;;;;;;3.31;60.17;101742.22;5091547;28;20046;-74
2022/03/11 01:57:14;;;;;;;15.50;9.82;;;;;;;3.32;60.03;101741.31;5091915;28;20060;-74
2022/03/11 01:59:40;;;;;;;14.05;8.95;;;;;;;3.43;59.59;101744.28;5091793;28;20063;-73
2022/03/11 02:02:06;;;;;;;13.55;8.98;;;;;;;3.43;59.50;101738.19;5091557;28;20040;-73
2022/03/11 02:04:31;;;;;;;16.73;9.35;;;;;;;3.36;59.91;101735.00;5073517;28;20435;-75
2022/03/11 02:06:57;;;;;;;14.75;9.68;;;;;;;3.32;59.86;101731.63;5091529;28;20040;-74
2022/03/11 02:09:23;;;;;;;18.50;9.13;;;;;;;3.28;60.21;101727.41;5091187;28;20093;-74
2022/03/11 02:11:48;;;;;;;16.98;9.10;;;;;;;3.22;60.21;101729.50;5072942;28;20032;-74
2022/03/11 02:14:14;;;;;;;15.85;8.95;;;;;;;3.18;60.31;101719.13;5091170;28;20473;-74
2022/03/11 02:16:40;;;;;;;17.33;8.88;;;;;;;3.15;60.34;101716.63;5072702;28;20524;-73
2022/03/11 02:19:07;;;;;;;15.27;9.52;;;;;;;3.26;60.12;101718.75;5093709;28;20064;-74
2022/03/11 02:21:43;;;;;;;14.85;9.25;;;;;;;3.19;60.37;101719.97;5091532;28;20036;-73
2022/03/11 02:24:12;;;;;;;17.58;9.43;;;;;;;3.18;60.26;101716.47;5092982;28;20047;-74
2022/03/11 02:26:38;;;;;;;18.13;10.63;;;;;;;3.27;60.39;101715.22;5092181;28;20066;-74
2022/03/11 02:29:05;;;;;;;18.40;9.80;;;;;;;3.29;60.00;101710.72;5090714;28;20077;-74
2022/03/11 02:31:31;;;;;;;15.93;9.93;;;;;;;3.37;59.86;101706.88;5091161;28;20104;-74
2022/03/11 02:33:59;;;;;;;18.17;9.32;;;;;;;3.34;59.71;101699.97;5091066;28;20060;-74
2022/03/11 02:36:25;;;;;;;18.98;10.07;;;;;;;3.31;60.08;101697.50;5090656;28;20421;-73
2022/03/11 02:38:50;;;;;;;16.95;9.30;;;;;;;3.32;60.10;101700.06;5090983;28;20078;-74
2022/03/11 02:41:16;;;;;;;21.58;9.82;;;;;;;3.23;60.32;101700.50;5072246;28;20028;-76
2022/03/11 02:43:42;;;;;;;19.73;9.85;;;;;;;3.22;60.15;101696.16;5090731;28;20115;-74
2022/03/11 02:46:09;;;;;;;17.50;10.20;;;;;;;3.14;60.67;101693.88;5090914;28;20031;-75
2022/03/11 02:48:34;;;;;;;16.30;9.65;;;;;;;3.09;60.75;101697.63;5090454;28;20034;-75
2022/03/11 02:51:00;;;;;;;18.17;10.07;;;;;;;3.05;60.92;101685.56;5090763;28;20115;-75
2022/03/11 02:53:26;;;;;;;16.20;9.55;;;;;;;2.98;60.96;101690.22;5090747;28;20382;-75
2022/03/11 02:55:51;;;;;;;17.33;10.27;;;;;;;2.87;61.68;101687.25;5090408;28;20165;-75
2022/03/11 02:58:17;;;;;;;19.92;10.23;;;;;;;2.75;62.22;101688.63;5072277;28;20485;-75
2022/03/11 03:00:42;;;;;;;18.00;10.18;;;;;;;2.64;62.73;101684.72;5090564;28;20112;-75
2022/03/11 03:03:07;;;;;;;17.88;9.23;;;;;;;2.56;62.55;101683.34;5090240;28;20421;-74
2022/03/11 03:05:33;;;;;;;21.27;10.48;;;;;;;2.50;62.63;101687.06;5090461;28;20115;-75
2022/03/11 03:07:58;;;;;;;22.70;10.95;;;;;;;2.44;62.92;101688.19;5055376;28;20419;-74
2022/03/11 03:10:24;;;;;;;18.20;11.07;;;;;;;2.44;63.13;101679.47;5089965;28;20052;-74
2022/03/11 03:12:50;;;;;;;20.27;11.30;;;;;;;2.38;63.20;101675.31;5090248;28;20186;-73
2022/03/11 03:15:15;;;;;;;24.80;11.70;;;;;;;2.52;62.85;101672.09;5071704;28;20035;-74
2022/03/11 03:17:41;;;;;;;19.08;11.00;;;;;;;2.57;62.62;101672.75;5071918;28;20032;-73
2022/03/11 03:20:08;;;;;;;23.48;11.00;;;;;;;2.62;62.58;101669.91;5072094;28;20549;-75
2022/03/11 03:22:34;;;;;;;20.50;10.90;;;;;;;2.59;62.45;101663.00;5089949;28;20336;-74
2022/03/11 03:24:59;;;;;;;19.38;10.20;;;;;;;2.51;62.58;101662.50;5090239;28;20405;-74
2022/03/11 03:27:24;;;;;;;18.15;10.57;;;;;;;2.59;62.84;101657.75;5071926;28;20057;-74
2022/03/11 03:29:50;;;;;;;16.23;10.32;;;;;;;2.69;62.28;101658.22;5089917;28;20031;-75
2022/03/11 03:32:15;;;;;;;15.05;9.63;;;;;;;2.62;62.47;101664.66;5089865;28;20040;-75
2022/03/11 03:34:41;;;;;;;22.55;10.23;;;;;;;2.63;62.19;101655.88;5071663;28;20052;-73
2022/03/11 03:37:08;;;;;;;17.00;10.30;;;;;;;2.56;62.62;101660.53;5089980;28;20115;-74
2022/03/11 03:39:35;;;;;;;17.63;10.25;;;;;;;2.53;62.54;101655.41;5090255;28;20043;-73
2022/03/11 03:42:01;;;;;;;18.77;10.43;;;;;;;2.47;63.59;101653.91;5089714;28;20104;-73
2022/03/11 03:44:26;;;;;;;21.05;10.32;;;;;;;2.54;62.84;101648.38;5090120;28;20510;-74
2022/03/11 03:46:52;;;;;;;17.95;10.77;;;;;;;2.53;62.87;101652.78;5090556;28;20028;-74
2022/03/11 03:49:17;;;;;;;16.58;9.88;;;;;;;2.46;62.91;101646.94;5074349;28;20176;-74
2022/03/11 03:51:44;;;;;;;16.52;10.73;;;;;;;2.38;63.58;101645.56;5075350;28;20490;-74
2022/03/11 03:54:12;;;;;;;17.52;10.70;;;;;;;2.32;63.72;101637.97;5096599;28;20092;-74
2022/03/11 03:56:39;;;;;;;16.52;10.45;;;;;;;2.24;64.10;101644.41;5096875;28;20046;-74
2022/03/11 03:59:06;;;;;;;18.85;10.77;;;;;;;2.17;64.12;101637.69;5097457;28;20108;-74
2022/03/11 04:01:40;;;;;;;22.25;10.40;;;;;;;2.23;64.04;101641.84;5095145;28;20083;-73
2022/03/11 04:04:07;;;;;;;16.95;10.32;;;;;;;2.19;64.11;101638.47;5093737;28;20143;-75
2022/03/11 04:06:33;;;;;;;15.95;10.23;;;;;;;2.11;64.13;101638.81;5093950;28;20043;-74
2022/03/11 04:09:00;;;;;;;18.45;10.55;;;;;;;2.04;64.44;101633.88;5093236;28;20491;-74
2022/03/11 04:11:27;;;;;;;17.05;10.40;;;;;;;1.94;64.56;101628.16;5093546;28;20035;-73
2022/03/11 04:13:54;;;;;;;18.52;10.57;;;;;;;1.84;65.02;101632.09;5074987;28;20109;-73
2022/03/11 04:16:20;;;;;;;19.05;10.18;;;;;;;1.75;65.29;101631.53;5093112;28;20127;-74
2022/03/11 04:18:46;;;;;;;15.43;9.93;;;;;;;1.69;65.65;101621.31;5074765;28;20063;-76
2022/03/11 04:21:12;;;;;;;22.20;11.02;;;;;;;1.61;65.78;101623.38;5092971;28;20035;-75
2022/03/11 04:23:38;;;;;;;13.82;9.85;;;;;;;1.61;66.00;101619.91;5093396;28;20032;-75
2022/03/11 04:26:03;;;;;;;17.08;10.50;;;;;;;1.54;65.85;101619.31;5074856;28;20036;-75
2022/03/11 04:28:29;;;;;;;21.52;10.40;;;;;;;1.51;66.16;101609.78;5092732;28;20103;-74
2022/03/11 04:30:54;;;;;;;15.82;9.85;;;;;;;1.50;66.30;101613.31;5093120;28;20070;-74
2022/03/11 04:33:21;;;;;;;17.15;10.57;;;;;;;1.66;65.82;101610.09;5092592;28;20051;-74
2022/03/11 04:35:47;;;;;;;17.27;9.60;;;;;;;1.66;65.33;101610.09;5092491;28;20507;-73
2022/03/11 04:38:12;;;;;;;14.50;9.75;;;;;;;1.91;64.70;101604.66;5092835;28;20059;-73
2022/03/11 04:40:38;;;;;;;16.33;10.50;;;;;;;1.93;64.48;101608.94;5074260;28;20032;-73
2022/03/11 04:43:03;;;;;;;17.48;9.93;;;;;;;1.99;64.05;101605.19;5074415;28;20050;-74
2022/03/11 04:45:29;;;;;;;18.90;10.02;;;;;;;1.98;63.95;101606.09;5092786;28;20031;-75
2022/03/11 04:47:54;;;;;;;17.55;9.60;;;;;;;1.93;64.07;101606.31;5092596;28;20028;-75
2022/03/11 04:50:20;;;;;;;19.05;10.30;;;;;;;1.96;64.20;101600.09;5092540;28;20055;-75
2022/03/11 04:52:45;;;;;;;16.40;10.05;;;;;;;2.00;64.16;101600.78;5092646;28;20124;-75
2022/03/11 04:55:11;;;;;;;20.92;11.00;;;;;;;2.08;63.46;101601.34;5092199;28;20058;-74
2022/03/11 04:57:37;;;;;;;21.02;10.13;;;;;;;2.13;63.34;101607.22;5073959;28;20043;-74
2022/03/11 05:00:03;;;;;;;15.85;10.18;;;;;;;2.13;63.74;101601.97;5092358;28;20032;-75
2022/03/11 05:02:30;;;;;;;17.55;9.65;;;;;;;2.20;63.12;101599.97;5092124;28;20453;-75
2022/03/11 05:04:55;;;;;;;17.00;10.07;;;;;;;2.19;62.94;101600.88;5092012;28;20472;-75
2022/03/11 05:07:21;;;;;;;19.38;10.02;;;;;;;2.26;62.46;101594.44;5092334;28;20135;-75
2022/03/11 05:09:47;;;;;;;17.83;9.98;;;;;;;2.22;62.71;101598.09;5092561;28;20078;-75
2022/03/11 05:12:12;;;;;;;15.80;10.07;;;;;;;2.28;62.40;101593.47;5092294;28;20405;-74
2022/03/11 05:14:38;;;;;;;16.35;10.40;;;;;;;2.20;62.78;101599.97;5073778;28;20051;-75
2022/03/11 05:17:04;;;;;;;21.38;9.77;;;;;;;2.22;62.87;101593.69;5091943;28;20054;-75
2022/03/11 05:19:29;;;;;;;23.50;10.23;;;;;;;2.31;62.36;101589.81;5073354;28;20036;-76
2022/03/11 05:21:55;;;;;;;16.52;10.48;;;;;;;2.24;63.04;101588.38;5073966;28;20437;-74
2022/03/11 05:24:20;;;;;;;16.20;10.73;;;;;;;2.18;62.81;101594.78;5091819;28;20040;-75
2022/03/11 05:26:45;;;;;;;32.72;11.20;;;;;;;2.22;63.20;101587.59;5091830;28;20321;-75
2022/03/11 05:29:11;;;;;;;17.55;11.18;;;;;;;2.20;62.79;101582.41;5091898;28;20128;-73
2022/03/11 05:31:36;;;;;;;18.25;10.48;;;;;;;2.32;62.33;101590.69;5091315;28;20028;-74
2022/03/11 05:34:02;;;;;;;22.67;11.10;;;;;;;2.24;62.44;101589.25;5073581;28;20069;-74
2022/03/11 05:36:27;;;;;;;14.85;10.02;;;;;;;2.26;62.49;101589.19;5092245;28;20073;-74
2022/03/11 05:38:52;;;;;;;22.40;11.13;;;;;;;2.19;62.53;101593.00;5091938;28;20047;-74
2022/03/11 05:41:18;;;;;;;24.23;10.57;;;;;;;2.10;63.14;101589.81;5073400;28;20043;-74
2022/03/11 05:43:44;;;;;;;17.58;10.50;;;;;;;2.09;63.24;101590.78;5091935;28;20043;-74
2022/03/11 05:46:09;;;;;;;21.23;10.27;;;;;;;2.09;63.00;101589.91;5091294;28;20032;-75
2022/03/11 05:48:35;;;;;;;18.17;10.27;;;;;;;2.10;62.98;101586.34;5091405;28;20082;-74
2022/03/11 05:51:00;;;;;;;18.60;10.50;;;;;;;2.03;63.29;101585.78;5091281;28;20105;-74
2022/03/11 05:53:26;;;;;;;15.80;10.00;;;;;;;1.96;63.69;101573.84;5091349;28;20030;-74
2022/03/11 05:55:52;;;;;;;17.23;10.15;;;;;;;1.86;63.96;101575.13;5091803;28;20121;-74
2022/03/11 05:58:17;;;;;;;20.63;11.38;;;;;;;1.82;64.19;101589.31;5072932;28;20141;-74
2022/03/11 06:00:43;;;;;;;16.88;10.30;;;;;;;1.72;64.48;101581.81;5072752;28;20424;-75
2022/03/11 06:03:08;;;;;;;17.60;10.90;;;;;;;1.76;64.73;101598.28;5091042;28;20047;-75
2022/03/11 06:05:34;;;;;;;27.02;10.30;;;;;;;1.82;64.38;101584.94;5091093;28;20114;-75
2022/03/11 06:08:02;;;;;;;14.10;9.88;;;;;;;1.83;64.04;101588.41;5091424;28;20059;-75
2022/03/11 06:10:27;;;;;;;18.63;10.15;;;;;;;1.82;64.14;101576.19;5072187;28;20159;-75
2022/03/11 06:12:52;;;;;;;19.77;10.65;;;;;;;1.76;64.36;101569.41;5090731;28;20203;-75
2022/03/11 06:15:18;;;;;;;20.95;11.27;;;;;;;1.72;64.80;101567.84;5091233;28;20028;-76
2022/03/11 06:17:43;;;;;;;17.98;10.82;;;;;;;1.76;64.56;101564.16;5090580;28;20048;-74
2022/03/11 06:20:11;;;;;;;16.23;10.05;;;;;;;1.83;64.55;101562.16;5090711;28;20127;-74
2022/03/11 06:22:36;;;;;;;15.50;10.02;;;;;;;1.93;63.92;101553.81;5072281;28;20032;-74
2022/03/11 06:25:03;;;;;;;24.33;10.15;;;;;;;1.98;63.48;101553.59;5090845;28;20028;-74
2022/03/11 06:27:29;;;;;;;16.02;10.18;;;;;;;2.00;63.18;101559.66;5091011;28;20088;-74
2022/03/11 06:29:54;;;;;;;19.40;10.43;;;;;;;2.02;63.23;101554.34;5090644;28;20464;-74
2022/03/11 06:32:20;;;;;;;19.92;9.50;;;;;;;2.05;63.10;101562.09;5071869;28;20028;-74
2022/03/11 06:34:48;;;;;;;16.52;10.15;;;;;;;2.14;62.62;101559.06;5072518;28;20056;-73
2022/03/11 06:37:14;;;;;;;16.17;10.20;;;;;;;2.15;62.77;101557.28;5090322;28;20051;-74
2022/03/11 06:39:39;;;;;;;19.67;10.18;;;;;;;2.13;62.87;101562.59;5090934;28;20040;-74
2022/03/11 06:42:05;;;;;;;21.55;10.07;;;;;;;2.16;62.81;101553.75;5091290;28;20061;-74
2022/03/11 06:44:31;;;;;;;22.67;9.98;;;;;;;2.16;63.03;101554.59;5071947;28;20059;-74
2022/03/11 06:46:57;;;;;;;17.70;10.20;;;;;;;2.25;62.51;101559.41;5090660;28;20103;-72
2022/03/11 06:49:22;;;;;;;18.83;9.43;;;;;;;2.24;62.43;101565.63;5090376;28;20032;-73
2022/03/11 06:51:47;;;;;;;16.42;9.60;;;;;;;2.42;61.60;101569.19;5071651;28;20059;-74
2022/03/11 06:54:13;;;;;;;17.95;9.10;;;;;;;2.51;61.50;101569.69;5072246;28;20458;-74
2022/03/11 06:56:38;;;;;;;17.98;9.70;;;;;;;2.56;61.24;101565.94;5090125;28;20060;-74
2022/03/11 06:59:04;;;;;;;19.13;9.73;;;;;;;2.64;61.16;101558.56;5090199;28;20059;-76
2022/03/11 07:01:30;;;;;;;13.85;9.40;;;;;;;2.73;60.66;101559.94;5055503;28;20338;-75
2022/03/11 07:03:55;;;;;;;15.70;9.95;;;;;;;2.75;61.27;101557.22;5090294;28;20100;-75
2022/03/11 07:06:21;;;;;;;17.17;9.65;;;;;;;2.80;60.93;101547.34;5090388;28;20036;-74
2022/03/11 07:08:46;;;;;;;14.20;9.07;;;;;;;2.87;60.68;101543.50;5090477;28;20039;-75
2022/03/11 07:11:12;;;;;;;14.93;8.95;;;;;;;3.02;59.97;101541.09;5071774;28;20032;-75
2022/03/11 07:13:37;;;;;;;20.17;9.45;;;;;;;3.13;58.93;101538.78;5091382;28;20073;-75
2022/03/11 07:16:04;;;;;;;16.02;9.13;;;;;;;3.25;58.64;101542.59;5072505;28;20128;-74
2022/03/11 07:18:29;;;;;;;21.25;9.63;;;;;;;3.30;58.48;101541.47;5089878;28;20482;-73
2022/03/11 07:20:55;;;;;;;20.50;9.85;;;;;;;3.34;59.03;101544.78;5090453;28;20040;-74
2022/03/11 07:23:20;;;;;;;20.65;9.70;;;;;;;3.42;58.31;101542.63;5090910;28;20512;-75
2022/03/11 07:25:45;;;;;;;19.17;9.00;;;;;;;3.52;58.14;101549.16;5094595;28;20134;-75
2022/03/11 07:28:14;;;;;;;18.52;9.95;;;;;;;3.62;57.52;101544.25;5075439;28;20048;-74
2022/03/11 07:30:39;;;;;;;19.05;8.93;;;;;;;3.67;57.93;101542.28;5075393;28;20059;-73
2022/03/11 07:33:06;;;;;;;25.92;8.73;;;;;;;3.77;56.96;101541.78;5094189;28;20488;-75
2022/03/11 07:35:31;;;;;;;15.85;9.00;;;;;;;3.81;56.97;101528.41;5093605;28;20032;-74
2022/03/11 07:37:57;;;;;;;17.55;8.93;;;;;;;3.92;56.96;101529.63;5058943;28;20051;-73
2022/03/11 07:40:22;;;;;;;15.35;9.23;;;;;;;3.99;56.72;101523.13;5094165;28;20515;-75
2022/03/11 07:42:48;;;;;;;24.08;9.38;;;;;;;4.08;56.57;101532.34;5093672;28;20040;-74
2022/03/11 07:45:14;;;;;;;17.77;8.93;;;;;;;4.15;56.45;101531.94;5093981;28;20028;-73
2022/03/11 07:47:41;;;;;;;17.33;9.20;;;;;;;4.23;56.04;101524.44;5075501;28;20040;-76
2022/03/11 07:50:08;;;;;;;17.65;9.02;;;;;;;4.37;55.57;101528.13;5093660;28;20044;-75
2022/03/11 07:52:34;;;;;;;14.05;9.57;;;;;;;4.47;55.01;101517.97;5094166;28;20024;-76
2022/03/11 07:54:59;;;;;;;16.65;9.18;;;;;;;4.58;54.86;101529.63;5093963;28;20138;-75
2022/03/11 07:57:25;;;;;;;13.70;8.73;;;;;;;4.70;54.80;101528.13;5093916;28;20496;-73
2022/03/11 07:59:50;;;;;;;17.25;9.60;;;;;;;4.80;54.38;101528.44;5075664;28;20039;-75
2022/03/11 08:02:16;;;;;;;17.50;8.98;;;;;;;4.94;53.54;101523.25;5093879;28;20356;-74
2022/03/11 08:04:42;;;;;;;15.40;9.52;;;;;;;5.05;53.17;101516.53;5058965;28;20123;-76
2022/03/11 08:07:11;;;;;;;20.08;8.73;;;;;;;5.20;52.71;101512.19;5094154;28;20401;-76
2022/03/11 08:09:38;;;;;;;17.13;8.82;;;;;;;5.32;52.40;101511.47;5094103;28;20459;-73
2022/03/11 08:12:04;;;;;;;11.75;8.27;;;;;;;5.46;51.83;101508.88;5076297;28;20025;-74
2022/03/11 08:14:31;;;;;;;19.33;8.88;;;;;;;5.63;52.10;101501.75;5076073;28;20123;-73
2022/03/11 08:16:56;;;;;;;14.80;9.32;;;;;;;5.78;51.56;101500.00;5094669;28;20031;-73
2022/03/11 08:19:23;;;;;;;16.40;8.95;;;;;;;6.00;51.25;101500.44;5094267;28;20028;-74
2022/03/11 08:21:52;;;;;;;20.02;10.85;;;;;;;6.22;51.34;101492.97;5094187;28;20036;-75
2022/03/11 08:24:18;;;;;;;14.45;8.88;;;;;;;6.46;50.54;101501.16;5094993;28;20058;-75
2022/03/11 08:26:43;;;;;;;16.10;8.25;;;;;;;6.63;49.57;101497.47;5096193;28;20036;-79
2022/03/11 08:29:09;;;;;;;16.55;9.50;;;;;;;6.86;49.03;101498.63;5093885;28;20482;-84
2022/03/11 08:31:34;;;;;;;21.75;9.20;;;;;;;7.00;47.71;101493.31;5094348;28;20096;-78
2022/03/11 08:34:00;;;;;;;13.50;8.57;;;;;;;7.20;48.21;101481.41;5074354;28;20139;-77
2022/03/11 08:36:26;;;;;;;17.65;9.02;;;;;;;7.55;46.87;101490.59;5093566;28;20094;-77
2022/03/11 08:38:51;;;;;;;18.30;8.63;;;;;;;8.02;46.00;101488.31;5093452;28;20047;-75
2022/03/11 08:41:19;;;;;;;13.77;8.93;;;;;;;8.49;45.96;101483.28;5075975;28;20066;-76
2022/03/11 08:43:49;;;;;;;19.83;8.77;;;;;;;8.79;43.74;101486.38;5094681;28;20066;-76
2022/03/11 08:46:14;;;;;;;15.18;8.98;;;;;;;9.24;43.44;101479.59;5095576;28;20024;-77
2022/03/11 08:48:41;;;;;;;15.50;8.82;;;;;;;9.33;43.38;101476.25;5094677;28;20361;-76
2022/03/11 08:51:06;;;;;;;18.25;9.98;;;;;;;9.44;43.94;101464.81;5081061;28;20120;-76
2022/03/11 08:53:32;;;;;;;13.38;9.10;;;;;;;9.48;43.60;101468.91;5103544;28;20484;-75
2022/03/11 08:55:58;;;;;;;14.60;9.02;;;;;;;9.61;43.76;101463.53;5101072;28;20455;-73
2022/03/11 08:58:23;;;;;;;16.00;9.65;;;;;;;9.92;42.97;101458.50;5096120;28;20024;-73
2022/03/11 09:00:49;;;;;;;14.52;9.38;;;;;;;10.33;41.57;101462.34;5095683;28;20039;-73
2022/03/11 09:03:14;;;;;;;15.55;9.43;;;;;;;10.94;40.40;101470.75;5095272;28;20055;-77
2022/03/11 09:05:40;;;;;;;16.95;9.55;;;;;;;11.39;38.43;101459.06;5075935;28;20445;-76
2022/03/11 09:08:08;;;;;;;14.95;8.85;;;;;;;12.54;37.31;101452.78;5094082;28;20063;-78
2022/03/11 09:10:35;;;;;;;16.50;9.40;;;;;;;13.39;34.83;101443.28;5095212;28;20112;-77
2022/03/11 09:13:00;;;;;;;21.50;10.13;;;;;;;13.92;33.71;101443.69;5095075;28;20080;-78
2022/03/11 09:15:26;;;;;;;16.33;9.25;;;;;;;14.74;32.32;101447.38;5074986;28;20139;-77
2022/03/11 09:17:52;;;;;;;17.35;9.25;;;;;;;15.30;31.56;101441.84;5093744;28;20129;-76
2022/03/11 09:20:17;;;;;;;11.88;8.82;;;;;;;16.06;30.16;101432.31;5093301;28;20425;-76
2022/03/11 09:22:43;;;;;;;16.70;9.23;;;;;;;15.08;31.08;101441.34;5092725;28;20032;-80
2022/03/11 09:25:10;;;;;;;15.70;9.70;;;;;;;15.00;31.79;101433.22;5092735;28;20480;-75
2022/03/11 09:27:36;;;;;;;27.67;9.70;;;;;;;15.40;30.80;101436.41;5092754;28;20104;-84
2022/03/11 09:30:03;;;;;;;15.90;9.38;;;;;;;15.49;30.58;101430.09;5092816;28;20445;-78
2022/03/11 09:32:28;;;;;;;18.80;9.55;;;;;;;15.84;30.58;101434.56;5093421;28;20034;-76
2022/03/11 09:34:54;;;;;;;12.50;9.02;;;;;;;16.49;29.73;101427.75;5073867;28;20052;-80
2022/03/11 09:37:20;;;;;;;11.38;8.82;;;;;;;15.96;29.59;101428.91;5092470;28;20032;-77
2022/03/11 09:39:45;;;;;;;20.60;9.15;;;;;;;15.87;30.83;101428.03;5074444;28;20032;-75
2022/03/11 09:42:11;;;;;;;17.10;9.57;;;;;;;15.82;30.96;101422.28;5092711;28;20438;-76
2022/03/11 09:44:39;;;;;;;16.85;9.50;;;;;;;16.03;29.96;101424.56;5092507;28;20137;-79
2022/03/11 09:47:05;;;;;;;18.23;9.32;;;;;;;16.65;29.42;101428.84;5091877;28;20110;-77
2022/03/11 09:49:35;;;;;;;14.27;9.75;;;;;;;16.99;29.45;101420.69;5092249;28;20449;-77
2022/03/11 09:52:02;;;;;;;15.30;9.15;;;;;;;16.84;29.33;101409.72;5073940;28;20392;-75
2022/03/11 09:54:27;;;;;;;14.40;9.10;;;;;;;17.12;28.66;101408.56;5092003;28;20104;-76
2022/03/11 09:56:53;;;;;;;15.40;8.32;;;;;;;18.06;28.11;101409.72;5091762;28;20073;-77
2022/03/11 09:59:19;;;;;;;17.58;9.82;;;;;;;17.92;27.78;101413.16;5092224;28;20036;-76
2022/03/11 10:01:44;;;;;;;14.07;9.93;;;;;;;18.45;27.12;101397.25;5091806;28;20035;-75
2022/03/11 10:04:11;;;;;;;12.02;9.07;;;;;;;17.20;28.30;101395.97;5073240;28;20031;-74
2022/03/11 10:06:42;;;;;;;13.90;9.20;;;;;;;18.31;28.13;101399.69;5091320;28;20072;-76
2022/03/11 10:09:31;;;;;;;14.77;9.38;;;;;;;17.90;28.16;101388.25;5091620;28;20028;-77
2022/03/11 10:11:57;;;;;;;24.13;9.23;;;;;;;17.63;28.78;101387.66;5091450;28;20043;-78
2022/03/11 10:14:35;;;;;;;16.25;9.73;;;;;;;18.02;28.35;101386.03;5091282;28;20043;-75
2022/03/11 10:17:18;;;;;;;15.43;9.43;;;;;;;16.64;30.15;101384.97;5091847;28;20421;-78
2022/03/11 10:20:02;;;;;;;16.23;9.52;;;;;;;17.28;29.82;101379.81;5091405;28;20032;-77
2022/03/11 10:22:28;;;;;;;13.20;8.98;;;;;;;16.95;30.39;101379.00;5091867;28;20032;-76
2022/03/11 10:24:55;;;;;;;13.68;9.05;;;;;;;16.87;29.46;101373.66;5091896;28;20476;-79
2022/03/11 10:27:23;;;;;;;11.48;8.55;;;;;;;17.89;28.82;101373.97;5056878;28;20050;-76
2022/03/11 10:29:50;;;;;;;12.27;8.90;;;;;;;18.06;28.53;101380.13;5091925;28;20039;-77
2022/03/11 10:32:22;;;;;;;14.13;9.52;;;;;;;18.59;28.36;101379.50;5091706;28;20028;-77
2022/03/11 10:34:49;;;;;;;10.88;8.80;;;;;;;17.90;28.47;101364.03;5092544;28;20048;-78
2022/03/11 10:37:16;;;;;;;13.00;8.90;;;;;;;18.68;28.72;101357.69;5092001;28;20040;-78
2022/03/11 10:39:44;;;;;;;13.77;9.38;;;;;;;17.94;29.69;101360.00;5091609;28;20031;-79
2022/03/11 10:42:12;;;;;;;11.75;9.52;;;;;;;17.84;29.58;101357.50;5091327;28;20107;-75
2022/03/11 10:44:39;;;;;;;17.88;9.15;;;;;;;17.53;30.34;101342.13;5091638;28;20113;-75
2022/03/11 10:47:35;;;;;;;13.27;9.32;;;;;;;17.84;30.00;101352.09;5091299;28;20032;-79
2022/03/11 10:50:04;;;;;;;15.77;8.90;;;;;;;18.11;29.70;101350.81;5069624;28;20036;-78
2022/03/11 10:52:32;;;;;;;15.13;8.77;;;;;;;18.24;28.93;101344.88;5090902;28;20050;-78
2022/03/11 10:54:59;;;;;;;16.33;9.05;;;;;;;18.29;29.14;101345.16;5091370;28;20047;-78
2022/03/11 10:57:38;;;;;;;13.32;8.88;;;;;;;19.04;28.94;101340.09;5090687;28;20032;-76
2022/03/11 11:00:21;;;;;;;22.52;9.20;;;;;;;18.79;28.76;101348.34;5090747;28;20032;-82
2022/03/11 11:03:13;;;;;;;17.42;8.95;;;;;;;18.39;29.40;101347.66;5090380;28;20515;-76
2022/03/11 11:05:39;;;;;;;18.67;9.13;;;;;;;18.28;29.67;101339.97;5086360;28;20072;-74
2022/03/11 11:08:06;;;;;;;15.98;9.48;;;;;;;17.42;30.97;101340.63;5090619;28;20031;-78
2022/03/11 11:10:35;;;;;;;16.58;9.18;;;;;;;16.89;32.54;101339.38;5090989;28;20032;-76
2022/03/11 11:13:01;;;;;;;15.43;9.30;;;;;;;17.21;32.28;101337.63;5072389;28;20459;-75
2022/03/11 11:15:26;;;;;;;13.35;9.27;;;;;;;16.66;32.78;101333.78;5091136;28;20035;-75
2022/03/11 11:17:53;;;;;;;13.52;9.45;;;;;;;16.67;32.49;101328.22;5072668;28;20440;-75